Pagrindinis puslapis
METAR-TAF:

METAR-TAF

Oro uostai :

Westerland, Vokietija

platuma: 54-55N, ilguma: 008-21E, Aukštis: 16 m

Dabartinis oras

Ataskaita buvo paskelbta 21 minutes, ne 09:50 UTC
Vėjas 11 kt iš Vakarų
Temperatūra 16°C
Drėgmė 82%
Slėgis 1027 hPa
Matomumas 10 km arba daugiau
Išsisklaidę debesys ne aukštis 3700 ft

METAR: EDXW 200950Z 26011KT 9999 SCT037 16/13 Q1027

Laikas: 12:11 (10:11 UTC)

Prognozė

Ataskaita buvo paskelbta 2 valandos ir 11 minutes, ne 08:00 UTC
Prognozė galioja nuo 20 metu 09 UTC su 20 metu 18 UTC
Vėjas 12 kt iš Vakarų
Matomumas 10 km arba daugiau
Su prošvaistėmis ne aukštis 2500 ft
Laikinai
nuo 20 metu 09 UTC su 20 metu 18 UTC
Matomumas: 4000 m
Su prošvaistėmis ne aukštis 1200 ft
dulksna, lietus
Tikimybė 30% :
Laikinai
nuo 20 metu 09 UTC su 20 metu 18 UTC
Su prošvaistėmis ne aukštis 800 ft

TAF: EDXW 200800Z 2009/2018 28012KT 9999 BKN025 TEMPO 2009/2018 4000 -DZRA BKN012 PROB30 TEMPO 2009/2018 BKN008

Orai ataskaitas ir orų prognozės (METAR, TAF).

turimą stotys yra geltonos ir raudonos taškus žemėlapyje.

Perkelti pele per norėdami pamatyti stoties vardą.

Tada spustelėkite, norėdami matyti oro stebėjimo ir prognozės.

Norėdami pakeisti žemėlapį: spustelėkite ant žalios mygtukų su juodo kryžiaus žemyn,; žalią mygtuką su brūkšneliu, jei norite nutolinti; arba žalių rodyklių gretimoms žemėlapius.


METAR-TAF: